Terminal Aerodrome Forecast
Issued by NWS

Home | Current Version | Previous Version | Text Only | Print | Product List | Glossary On
Versions: 1 2 3 4 5 6 7 8 9 10 11 12 13 14 15 16 17
000
FTPA31 PHFO 271139
TAFHNY
TAF
PHNY 271139Z 2712/2812 VRB05KT P6SM SCT015
      TEMPO 2712/2716 BKN015
     FM272000 23008KT P6SM SCT015 BKN025
     FM280000 30008KT P6SM VCSH SCT015 BKN025
     FM280400 04011KT P6SM SCT025 BKN045=

USA.gov is the U.S. government's official web portal to all federal, state and local government web resources and services.